Apache Junction, Arizona
Current Conditions -  °F | °C
As of 3:52 PM on Friday 19 Dec 2014 (Local Time) from KIWA Reporting Station
Few Clouds Few Clouds  
Wind Chill: 61°   Ceiling: Unl
Heat Index: 61°   Visibility: 45mi
Dew Point: 36°   Wind: 8mph
Humidity: 39%   Direction: 280°W
Pressure: 30.14"   Gusts: NA
Location:  33.42°N, 111.54°W
Report Text: KIWA 192252Z 28007KT 45SM FEW150 16/02 A3014
Loading
Personal Weather Stations






























Interactive Weather Map New forecast layout! Learn more

10-Day Weather Forecast

Advertisements
Track Severe Weather on mobile